createdAt,value
2018-03-26T00:00:29.825Z,83.70
2018-03-26T00:01:29.801Z,85.80
2018-03-26T00:02:29.801Z,85.40
2018-03-26T00:03:29.794Z,83.40
2018-03-26T00:04:29.782Z,83.90
2018-03-26T00:05:29.764Z,86.00
2018-03-26T00:06:29.764Z,85.40
2018-03-26T00:07:29.750Z,88.40
2018-03-26T00:08:29.758Z,88.70
2018-03-26T00:09:29.742Z,86.80
2018-03-26T00:10:29.717Z,91.80
2018-03-26T00:11:29.721Z,86.30
2018-03-26T00:12:29.698Z,91.50
2018-03-26T00:13:29.700Z,86.50
2018-03-26T00:14:29.696Z,89.20
2018-03-26T00:15:29.672Z,91.90
2018-03-26T00:16:29.663Z,88.60
2018-03-26T00:17:29.655Z,90.90
2018-03-26T00:18:29.644Z,90.20
2018-03-26T00:19:29.647Z,86.70
2018-03-26T00:20:29.626Z,89.00
2018-03-26T00:21:29.628Z,91.20
2018-03-26T00:22:29.618Z,89.50
2018-03-26T00:23:29.600Z,91.40
2018-03-26T00:24:29.588Z,88.50
2018-03-26T00:25:29.593Z,97.80
2018-03-26T00:26:29.573Z,90.40
2018-03-26T00:27:29.563Z,92.50
2018-03-26T00:28:29.564Z,95.20
2018-03-26T00:29:29.554Z,96.00
2018-03-26T00:30:29.547Z,93.20
2018-03-26T00:31:29.528Z,89.90
2018-03-26T00:32:29.536Z,94.20
2018-03-26T00:33:29.507Z,91.30
2018-03-26T00:34:29.499Z,95.40
2018-03-26T00:35:29.489Z,91.70
2018-03-26T00:36:29.490Z,90.90
2018-03-26T00:37:29.490Z,92.10
2018-03-26T00:38:29.461Z,90.60
2018-03-26T00:39:29.452Z,93.90
2018-03-26T00:40:29.443Z,92.30
2018-03-26T00:41:29.443Z,93.70
2018-03-26T00:42:29.429Z,90.80
2018-03-26T00:43:29.428Z,92.40
2018-03-26T00:44:29.418Z,92.10
2018-03-26T00:45:29.398Z,92.10
2018-03-26T00:46:29.390Z,93.00
2018-03-26T00:47:29.380Z,91.70
2018-03-26T00:48:29.369Z,92.50
2018-03-26T00:49:29.362Z,93.60
2018-03-26T00:50:29.362Z,89.30
2018-03-26T00:51:29.381Z,93.40
2018-03-26T00:52:29.346Z,92.80
2018-03-26T00:53:29.324Z,96.50
2018-03-26T00:54:29.325Z,88.20
2018-03-26T00:55:29.306Z,91.50
2018-03-26T00:56:29.295Z,89.10
2018-03-26T00:57:29.287Z,89.30
2018-03-26T00:58:29.282Z,88.90
2018-03-26T00:59:29.267Z,92.20
2018-03-26T01:00:29.256Z,92.40
2018-03-26T01:01:29.251Z,88.10
2018-03-26T01:02:29.252Z,90.10
2018-03-26T01:03:29.228Z,88.10
2018-03-26T01:04:29.244Z,88.70
2018-03-26T01:05:29.225Z,87.90
2018-03-26T01:06:29.207Z,89.40
2018-03-26T01:07:29.192Z,91.30
2018-03-26T01:08:29.183Z,88.00
2018-03-26T01:09:29.175Z,89.00
2018-03-26T01:10:29.163Z,87.50
2018-03-26T01:11:29.157Z,87.20
2018-03-26T01:12:29.156Z,88.80
2018-03-26T01:13:29.136Z,87.90
2018-03-26T01:14:29.138Z,83.00
2018-03-26T01:15:29.118Z,86.70
2018-03-26T01:16:29.113Z,84.60
2018-03-26T01:17:29.101Z,82.10
2018-03-26T01:18:29.111Z,88.20
2018-03-26T01:19:29.102Z,85.50
2018-03-26T01:20:29.082Z,86.80
2018-03-26T01:21:29.086Z,85.30
2018-03-26T01:22:29.055Z,82.20
2018-03-26T01:23:29.043Z,87.00
2018-03-26T01:24:29.052Z,86.80
2018-03-26T01:25:29.046Z,86.20
2018-03-26T01:26:29.028Z,83.80
2018-03-26T01:27:29.020Z,86.50
2018-03-26T01:28:29.008Z,84.60
2018-03-26T01:29:28.996Z,84.30
2018-03-26T01:30:28.988Z,90.90
2018-03-26T01:31:28.967Z,86.50
2018-03-26T01:32:28.959Z,87.50
2018-03-26T01:33:28.952Z,83.70
2018-03-26T01:34:28.943Z,84.80
2018-03-26T01:35:28.947Z,88.10
2018-03-26T01:36:28.921Z,85.60
2018-03-26T01:37:28.911Z,88.20
2018-03-26T01:38:28.911Z,85.90
2018-03-26T01:39:28.904Z,83.60
2018-03-26T01:40:28.883Z,86.20
2018-03-26T01:41:28.877Z,84.40
2018-03-26T01:42:28.876Z,90.30
2018-03-26T01:43:28.865Z,86.90
2018-03-26T01:44:28.846Z,88.90
2018-03-26T01:45:28.859Z,82.70
2018-03-26T01:46:28.824Z,86.20
2018-03-26T01:47:28.828Z,87.00
2018-03-26T01:48:28.810Z,87.40
2018-03-26T01:49:28.806Z,86.60
2018-03-26T01:50:28.787Z,88.20
2018-03-26T01:51:28.790Z,87.10
2018-03-26T01:52:28.779Z,87.40
2018-03-26T01:53:28.757Z,86.60
2018-03-26T01:54:28.750Z,87.20
2018-03-26T01:55:28.737Z,85.00
2018-03-26T01:56:28.726Z,82.50
2018-03-26T01:57:28.714Z,83.40
2018-03-26T01:58:28.708Z,89.40
2018-03-26T01:59:28.700Z,87.60
2018-03-26T02:00:28.692Z,88.10
2018-03-26T02:01:28.677Z,83.50
2018-03-26T02:02:28.670Z,80.00
2018-03-26T02:03:28.668Z,84.50
2018-03-26T02:04:28.654Z,85.10
2018-03-26T02:05:28.641Z,89.50
2018-03-26T02:06:28.633Z,82.30
2018-03-26T02:07:28.623Z,88.30
2018-03-26T02:08:28.613Z,80.00
2018-03-26T02:09:28.605Z,84.10
2018-03-26T02:10:28.595Z,87.80
2018-03-26T02:11:28.585Z,81.50
2018-03-26T02:12:28.577Z,85.00
2018-03-26T02:13:28.568Z,85.20
2018-03-26T02:14:28.558Z,80.20
2018-03-26T02:15:28.546Z,81.10
2018-03-26T02:16:28.558Z,85.00
2018-03-26T02:17:28.528Z,80.50
2018-03-26T02:18:28.520Z,85.20
2018-03-26T02:19:28.509Z,84.30
2018-03-26T02:20:28.500Z,82.10
2018-03-26T02:21:28.490Z,85.30
2018-03-26T02:22:28.481Z,82.30
2018-03-26T02:23:28.471Z,81.60
2018-03-26T02:24:28.467Z,80.30
2018-03-26T02:25:28.451Z,82.50
2018-03-26T02:26:28.443Z,82.80
2018-03-26T02:27:28.433Z,81.10
2018-03-26T02:28:28.424Z,80.50
2018-03-26T02:29:28.414Z,82.40
2018-03-26T02:30:28.403Z,81.80
2018-03-26T02:31:28.396Z,83.80
2018-03-26T02:32:28.387Z,80.90
2018-03-26T02:33:28.377Z,79.80
2018-03-26T02:34:28.367Z,84.40
2018-03-26T02:35:28.355Z,77.40
2018-03-26T02:36:28.346Z,81.90
2018-03-26T02:37:28.342Z,79.80
2018-03-26T02:38:28.326Z,78.70
2018-03-26T02:39:28.320Z,80.00
2018-03-26T02:40:28.309Z,80.70
2018-03-26T02:41:28.298Z,78.70
2018-03-26T02:42:28.289Z,78.20
2018-03-26T02:43:28.279Z,80.10
2018-03-26T02:44:28.268Z,82.90
2018-03-26T02:45:28.260Z,71.60
2018-03-26T02:46:28.252Z,76.70
2018-03-26T02:47:28.238Z,80.50
2018-03-26T02:48:28.232Z,78.20
2018-03-26T02:49:28.222Z,78.70
2018-03-26T02:50:28.211Z,77.90
2018-03-26T02:51:28.208Z,76.30
2018-03-26T02:52:28.195Z,81.40
2018-03-26T02:53:28.182Z,80.30
2018-03-26T02:54:28.175Z,77.00
2018-03-26T02:55:28.164Z,75.60
2018-03-26T02:56:28.155Z,80.50
2018-03-26T02:57:28.145Z,81.80
2018-03-26T02:58:28.135Z,81.50
2018-03-26T02:59:28.124Z,81.40
2018-03-26T03:00:28.115Z,79.80
2018-03-26T03:01:28.117Z,80.30
2018-03-26T03:02:28.095Z,78.30
2018-03-26T03:03:28.088Z,82.40
2018-03-26T03:04:28.077Z,81.00
2018-03-26T03:05:28.067Z,79.60
2018-03-26T03:06:28.057Z,86.90
2018-03-26T03:07:28.048Z,81.40
2018-03-26T03:08:28.038Z,84.80
2018-03-26T03:09:28.030Z,88.30
2018-03-26T03:10:28.018Z,86.80
2018-03-26T03:11:28.008Z,85.90
2018-03-26T03:12:28.000Z,91.50
2018-03-26T03:13:27.989Z,85.10
2018-03-26T03:14:27.980Z,92.40
2018-03-26T03:15:27.971Z,91.80
2018-03-26T03:16:27.959Z,91.20
2018-03-26T03:17:27.948Z,87.50
2018-03-26T03:18:27.941Z,89.20
2018-03-26T03:19:27.935Z,89.70
2018-03-26T03:20:27.922Z,93.50
2018-03-26T03:21:27.920Z,92.20
2018-03-26T03:22:27.901Z,87.80
2018-03-26T03:23:27.891Z,90.20
2018-03-26T03:24:27.877Z,95.90
2018-03-26T03:25:27.874Z,88.30
2018-03-26T03:26:27.866Z,96.30
2018-03-26T03:27:27.851Z,87.40
2018-03-26T03:28:27.842Z,92.20
2018-03-26T03:29:27.833Z,86.00
2018-03-26T03:30:27.823Z,83.10
2018-03-26T03:31:27.820Z,87.40
2018-03-26T03:32:27.805Z,86.60
2018-03-26T03:33:27.793Z,94.30
2018-03-26T03:34:27.786Z,91.00
2018-03-26T03:35:27.773Z,88.50
2018-03-26T03:36:27.766Z,91.20
2018-03-26T03:37:27.754Z,86.20
2018-03-26T03:38:27.746Z,83.10
2018-03-26T03:39:27.735Z,92.00
2018-03-26T03:40:27.724Z,91.70
2018-03-26T03:41:27.715Z,89.20
2018-03-26T03:42:27.703Z,89.00
2018-03-26T03:43:27.744Z,91.50
2018-03-26T03:44:27.685Z,90.80
2018-03-26T03:45:27.675Z,90.10
2018-03-26T03:46:27.666Z,87.80
2018-03-26T03:47:27.657Z,90.60
2018-03-26T03:48:27.646Z,84.10
2018-03-26T03:49:27.637Z,90.20
2018-03-26T03:50:27.627Z,85.80
2018-03-26T03:51:27.615Z,89.40
2018-03-26T03:52:27.607Z,94.50
2018-03-26T03:53:27.599Z,88.00
2018-03-26T03:54:27.587Z,91.50
2018-03-26T03:55:27.578Z,92.10
2018-03-26T03:56:27.569Z,91.10
2018-03-26T03:57:27.559Z,89.50
2018-03-26T03:58:27.547Z,86.40
2018-03-26T03:59:27.540Z,91.80
2018-03-26T04:00:27.529Z,89.80
2018-03-26T04:01:27.518Z,94.30
2018-03-26T04:02:27.509Z,90.90
2018-03-26T04:03:27.500Z,88.60
2018-03-26T04:04:27.490Z,89.40
2018-03-26T04:05:27.477Z,88.40
2018-03-26T04:06:27.472Z,84.70
2018-03-26T04:07:27.462Z,91.90
2018-03-26T04:08:27.451Z,93.40
2018-03-26T04:09:27.442Z,89.10
2018-03-26T04:10:27.431Z,92.70
2018-03-26T04:11:27.423Z,90.50
2018-03-26T04:12:27.413Z,96.50
2018-03-26T04:13:27.403Z,106.80
2018-03-26T04:14:27.393Z,96.10
2018-03-26T04:15:27.383Z,92.20
2018-03-26T04:16:27.372Z,91.90
2018-03-26T04:17:27.362Z,90.00
2018-03-26T04:18:27.354Z,83.60
2018-03-26T04:19:27.341Z,86.60
2018-03-26T04:20:27.332Z,91.20
2018-03-26T04:21:27.324Z,88.20
2018-03-26T04:22:27.311Z,87.80
2018-03-26T04:23:27.304Z,87.60
2018-03-26T04:24:27.295Z,83.90
2018-03-26T04:25:27.284Z,83.00
2018-03-26T04:26:27.323Z,80.60
2018-03-26T04:27:27.266Z,79.20
2018-03-26T04:28:27.253Z,78.10
2018-03-26T04:29:27.246Z,83.40
2018-03-26T04:30:27.233Z,80.60
2018-03-26T04:31:27.223Z,80.30
2018-03-26T04:32:27.213Z,80.90
2018-03-26T04:33:27.203Z,80.40
2018-03-26T04:34:27.193Z,82.10
2018-03-26T04:35:27.186Z,77.90
2018-03-26T04:36:27.179Z,76.40
2018-03-26T04:37:27.165Z,74.70
2018-03-26T04:38:27.153Z,74.90
2018-03-26T04:39:27.145Z,80.00
2018-03-26T04:40:27.136Z,75.90
2018-03-26T04:41:27.124Z,75.80
2018-03-26T04:42:27.116Z,78.70
2018-03-26T04:43:27.105Z,74.10
2018-03-26T04:44:27.097Z,76.40
2018-03-26T04:45:27.086Z,76.20
2018-03-26T04:46:27.078Z,71.80
2018-03-26T04:47:27.071Z,73.30
2018-03-26T04:48:27.060Z,74.50
2018-03-26T04:49:27.047Z,73.30
2018-03-26T04:50:27.087Z,72.20
2018-03-26T04:51:27.026Z,70.80
2018-03-26T04:52:27.020Z,73.90
2018-03-26T04:53:27.006Z,72.90
2018-03-26T04:54:26.996Z,75.70
2018-03-26T04:55:26.988Z,71.20
2018-03-26T04:56:26.978Z,71.30
2018-03-26T04:57:26.967Z,67.60
2018-03-26T04:58:26.960Z,64.40
2018-03-26T04:59:26.948Z,69.30
2018-03-26T05:00:26.939Z,70.00
2018-03-26T05:01:26.952Z,67.70
2018-03-26T05:02:26.917Z,71.30
2018-03-26T05:03:26.908Z,67.00
2018-03-26T05:04:26.898Z,70.40
2018-03-26T05:05:26.890Z,67.00
2018-03-26T05:06:26.879Z,63.60
2018-03-26T05:07:26.871Z,67.10
2018-03-26T05:08:26.858Z,66.90
2018-03-26T05:09:26.847Z,63.20
2018-03-26T05:10:26.840Z,62.00
2018-03-26T05:11:26.829Z,67.40
2018-03-26T05:12:26.820Z,62.90
2018-03-26T05:13:26.809Z,61.70
2018-03-26T05:14:26.811Z,61.00
2018-03-26T05:15:26.789Z,61.80
2018-03-26T05:16:26.781Z,61.10
2018-03-26T05:17:27.706Z,60.10
2018-03-26T05:18:26.760Z,63.10
2018-03-26T05:19:26.750Z,62.80
2018-03-26T05:20:26.737Z,59.80
2018-03-26T05:21:26.726Z,57.20
2018-03-26T05:22:26.721Z,64.40
2018-03-26T05:23:26.710Z,62.30
2018-03-26T05:24:26.701Z,64.00
2018-03-26T05:25:26.690Z,61.10
2018-03-26T05:26:26.683Z,56.70
2018-03-26T05:27:26.673Z,61.10
2018-03-26T05:28:26.661Z,59.30
2018-03-26T05:29:26.655Z,58.40
2018-03-26T05:30:26.641Z,58.00
2018-03-26T05:31:26.630Z,58.50
2018-03-26T05:32:26.624Z,60.00
2018-03-26T05:33:26.613Z,57.50
2018-03-26T05:34:26.603Z,56.30
2018-03-26T05:35:26.590Z,53.80
2018-03-26T05:36:26.587Z,54.40
2018-03-26T05:37:26.570Z,57.00
2018-03-26T05:38:26.564Z,56.00
2018-03-26T05:39:26.561Z,55.70
2018-03-26T05:40:26.574Z,54.80
2018-03-26T05:41:26.532Z,54.40
2018-03-26T05:42:26.523Z,54.00
2018-03-26T05:43:26.509Z,57.40
2018-03-26T05:44:26.505Z,52.20
2018-03-26T05:45:26.493Z,53.10
2018-03-26T05:46:26.483Z,53.00
2018-03-26T05:47:26.474Z,51.30
2018-03-26T05:48:26.464Z,53.00
2018-03-26T05:49:26.453Z,51.20
2018-03-26T05:50:26.438Z,55.90
2018-03-26T05:51:26.430Z,50.30
2018-03-26T05:52:26.428Z,49.10
2018-03-26T05:53:26.415Z,48.20
2018-03-26T05:54:26.407Z,52.10
2018-03-26T05:55:26.393Z,51.30
2018-03-26T05:56:26.387Z,47.70
2018-03-26T05:57:26.374Z,51.60
2018-03-26T05:58:26.365Z,45.60
2018-03-26T05:59:26.356Z,46.00
2018-03-26T06:00:26.347Z,47.40
2018-03-26T06:01:26.333Z,45.20
2018-03-26T06:02:26.324Z,45.20
2018-03-26T06:03:26.314Z,44.30
2018-03-26T06:04:26.307Z,42.80
2018-03-26T06:05:26.294Z,47.90
2018-03-26T06:06:26.287Z,45.90
2018-03-26T06:07:26.274Z,44.40
2018-03-26T06:08:26.269Z,41.90
2018-03-26T06:09:26.257Z,45.70
2018-03-26T06:10:26.247Z,45.80
2018-03-26T06:11:26.262Z,41.30
2018-03-26T06:12:26.233Z,45.60
2018-03-26T06:13:26.216Z,43.60
2018-03-26T06:14:26.208Z,44.60
2018-03-26T06:15:26.197Z,41.90
2018-03-26T06:16:26.190Z,43.70
2018-03-26T06:17:26.180Z,43.10
2018-03-26T06:18:26.164Z,42.10
2018-03-26T06:19:26.157Z,41.60
2018-03-26T06:20:26.148Z,41.80
2018-03-26T06:21:26.137Z,40.60
2018-03-26T06:22:26.132Z,45.80
2018-03-26T06:23:26.119Z,43.30
2018-03-26T06:24:26.110Z,41.10
2018-03-26T06:25:26.101Z,45.90
2018-03-26T06:26:26.088Z,42.30
2018-03-26T06:27:26.078Z,42.30
2018-03-26T06:28:26.072Z,45.70
2018-03-26T06:29:26.060Z,39.90
2018-03-26T06:30:26.061Z,44.10
2018-03-26T06:31:26.039Z,39.80
2018-03-26T06:32:26.033Z,41.90
2018-03-26T06:33:26.021Z,46.20
2018-03-26T06:34:26.018Z,43.60
2018-03-26T06:35:26.006Z,43.40
2018-03-26T06:36:25.991Z,43.20
2018-03-26T06:37:25.982Z,41.70
2018-03-26T06:38:25.978Z,41.20
2018-03-26T06:39:25.961Z,42.90
2018-03-26T06:40:25.955Z,45.60
2018-03-26T06:41:25.943Z,43.80
2018-03-26T06:42:25.934Z,41.00
2018-03-26T06:43:25.924Z,39.40
2018-03-26T06:44:25.915Z,43.60
2018-03-26T06:45:25.903Z,42.20
2018-03-26T06:46:25.896Z,43.00
2018-03-26T06:47:25.883Z,44.00
2018-03-26T06:48:25.880Z,41.00
2018-03-26T06:49:25.867Z,42.60
2018-03-26T06:50:25.858Z,39.30
2018-03-26T06:51:25.848Z,44.70
2018-03-26T06:52:25.837Z,43.80
2018-03-26T06:53:25.826Z,40.20
2018-03-26T06:54:25.824Z,39.70
2018-03-26T06:55:25.812Z,36.90
2018-03-26T06:56:25.798Z,36.50
2018-03-26T06:57:26.721Z,39.80
2018-03-26T06:58:25.776Z,39.80
2018-03-26T06:59:25.787Z,36.40
2018-03-26T07:00:25.760Z,41.70
2018-03-26T07:01:25.754Z,37.20
2018-03-26T07:02:25.741Z,37.40
2018-03-26T07:03:25.738Z,39.20
2018-03-26T07:04:25.722Z,38.80
2018-03-26T07:05:25.711Z,37.50
2018-03-26T07:06:25.703Z,41.20
2018-03-26T07:07:25.693Z,38.60
2018-03-26T07:08:25.687Z,40.30
2018-03-26T07:09:25.678Z,38.80
2018-03-26T07:10:26.679Z,39.60
2018-03-26T07:11:25.656Z,36.20
2018-03-26T07:12:25.696Z,36.80
2018-03-26T07:13:25.637Z,39.50
2018-03-26T07:14:25.630Z,41.10
2018-03-26T07:15:25.619Z,36.80
2018-03-26T07:16:25.611Z,40.00
2018-03-26T07:17:25.600Z,39.10
2018-03-26T07:18:25.591Z,38.40
2018-03-26T07:19:25.604Z,38.00
2018-03-26T07:20:25.573Z,35.90
2018-03-26T07:21:25.563Z,38.80
2018-03-26T07:22:25.556Z,38.00
2018-03-26T07:23:25.548Z,40.30
2018-03-26T07:24:25.555Z,37.60
2018-03-26T07:25:25.527Z,38.80
2018-03-26T07:26:25.518Z,39.80
2018-03-26T07:27:25.511Z,41.40
2018-03-26T07:28:25.506Z,40.60
2018-03-26T07:29:25.533Z,37.70
2018-03-26T07:30:25.497Z,40.40
2018-03-26T07:31:25.479Z,39.80
2018-03-26T07:32:25.470Z,39.80
2018-03-26T07:33:25.459Z,41.00
2018-03-26T07:34:25.452Z,41.50
2018-03-26T07:35:25.447Z,41.50
2018-03-26T07:36:25.438Z,41.00
2018-03-26T07:37:25.428Z,39.30
2018-03-26T07:38:25.423Z,39.80
2018-03-26T07:39:25.436Z,39.90
2018-03-26T07:40:25.399Z,38.60
2018-03-26T07:41:25.394Z,39.90
2018-03-26T07:42:25.404Z,41.80
2018-03-26T07:43:25.406Z,41.00
2018-03-26T07:44:25.370Z,41.80
2018-03-26T07:45:25.362Z,39.70
2018-03-26T07:46:25.353Z,38.20
2018-03-26T07:47:25.377Z,40.00
2018-03-26T07:48:25.341Z,40.60
2018-03-26T07:49:25.333Z,40.60
2018-03-26T07:50:25.323Z,40.70
2018-03-26T07:51:25.312Z,34.80
2018-03-26T07:52:25.306Z,38.50
2018-03-26T07:53:25.302Z,39.70
2018-03-26T07:54:25.285Z,37.00
2018-03-26T07:55:25.284Z,37.50
2018-03-26T07:56:25.275Z,33.70
2018-03-26T07:57:25.268Z,33.30
2018-03-26T07:58:25.262Z,35.00
2018-03-26T07:59:25.254Z,34.60
2018-03-26T08:00:25.825Z,33.80
2018-03-26T08:01:25.239Z,32.50
2018-03-26T08:02:25.227Z,31.20
2018-03-26T08:03:25.966Z,32.40
2018-03-26T08:04:25.214Z,32.50
2018-03-26T08:05:25.211Z,31.10
2018-03-26T08:06:25.212Z,30.30
2018-03-26T08:07:25.192Z,33.10
2018-03-26T08:08:25.185Z,34.80
2018-03-26T08:09:25.179Z,29.90
2018-03-26T08:10:25.172Z,31.50
2018-03-26T08:11:25.179Z,30.60
2018-03-26T08:12:25.159Z,30.50
2018-03-26T08:13:25.150Z,32.30
2018-03-26T08:14:25.139Z,30.70
2018-03-26T08:15:25.131Z,28.10
2018-03-26T08:16:25.128Z,29.00
2018-03-26T08:17:25.125Z,26.30
2018-03-26T08:18:25.113Z,28.60
2018-03-26T08:19:25.103Z,27.70
2018-03-26T08:20:25.100Z,25.30
2018-03-26T08:21:25.087Z,26.20
2018-03-26T08:22:25.078Z,26.60
2018-03-26T08:23:25.080Z,25.20
2018-03-26T08:24:25.071Z,24.00
2018-03-26T08:25:25.063Z,26.20
2018-03-26T08:26:25.060Z,25.40
2018-03-26T08:27:25.044Z,24.00
2018-03-26T08:28:25.039Z,25.80
2018-03-26T08:29:25.035Z,23.70
2018-03-26T08:30:25.028Z,26.00
2018-03-26T08:31:25.023Z,24.70
2018-03-26T08:32:25.015Z,25.00
2018-03-26T08:33:25.007Z,23.80
2018-03-26T08:34:25.018Z,21.90
2018-03-26T08:35:25.004Z,24.40
2018-03-26T08:36:25.015Z,21.10
2018-03-26T08:37:24.984Z,22.40
2018-03-26T08:38:24.981Z,22.70
2018-03-26T08:39:24.977Z,22.40
2018-03-26T08:40:24.970Z,21.10
2018-03-26T08:41:24.958Z,19.80
2018-03-26T08:42:25.029Z,19.60
2018-03-26T08:43:24.951Z,20.80
2018-03-26T08:44:24.951Z,20.10
2018-03-26T08:45:24.948Z,21.30
2018-03-26T08:46:24.944Z,18.80
2018-03-26T08:47:24.938Z,18.50
2018-03-26T08:48:24.934Z,18.00
2018-03-26T08:49:24.962Z,18.10
2018-03-26T08:50:24.962Z,21.20
2018-03-26T08:51:24.933Z,18.10
2018-03-26T08:52:24.926Z,22.10
2018-03-26T08:53:24.922Z,20.10
2018-03-26T08:54:24.920Z,19.40
2018-03-26T08:55:24.922Z,20.00
2018-03-26T08:56:24.919Z,20.40
2018-03-26T08:57:24.920Z,17.80
2018-03-26T08:58:24.915Z,20.40
2018-03-26T08:59:24.920Z,18.60
2018-03-26T09:00:24.920Z,19.40
2018-03-26T09:01:24.915Z,19.40
2018-03-26T09:02:24.917Z,19.40
2018-03-26T09:03:24.917Z,20.10
2018-03-26T09:04:24.920Z,18.20
2018-03-26T09:05:24.918Z,17.90
2018-03-26T09:06:24.920Z,17.20
2018-03-26T09:07:24.931Z,17.10
2018-03-26T09:08:24.925Z,16.10
2018-03-26T09:09:24.928Z,19.50
2018-03-26T09:10:24.927Z,17.10
2018-03-26T09:11:24.928Z,15.80
2018-03-26T09:12:24.937Z,16.10
2018-03-26T09:13:24.932Z,15.40
2018-03-26T09:14:24.932Z,15.80
2018-03-26T09:15:24.935Z,15.60
2018-03-26T09:16:24.947Z,14.70
2018-03-26T09:17:24.946Z,15.20
2018-03-26T09:18:24.947Z,15.00
2018-03-26T09:19:24.952Z,13.70
2018-03-26T09:20:24.952Z,13.90
2018-03-26T09:21:24.950Z,13.30
2018-03-26T09:22:24.961Z,12.90
2018-03-26T09:23:24.959Z,12.60
2018-03-26T09:24:24.965Z,12.30
2018-03-26T09:25:24.967Z,11.00
2018-03-26T09:26:24.972Z,11.70
2018-03-26T09:27:24.976Z,9.80
2018-03-26T09:28:24.979Z,10.30
2018-03-26T09:29:24.982Z,10.30
2018-03-26T09:30:24.987Z,11.10
2018-03-26T09:31:24.992Z,11.50
2018-03-26T09:32:25.030Z,10.50
2018-03-26T09:33:25.001Z,10.30
2018-03-26T09:34:25.003Z,10.20
2018-03-26T09:35:25.042Z,10.10
2018-03-26T09:36:25.012Z,10.20
2018-03-26T09:37:25.017Z,9.90
2018-03-26T09:38:25.023Z,10.20
2018-03-26T09:39:25.673Z,10.00
2018-03-26T09:40:25.038Z,10.30
2018-03-26T09:41:25.041Z,9.80
2018-03-26T09:42:25.042Z,9.60
2018-03-26T09:43:25.051Z,10.10
2018-03-26T09:44:25.059Z,9.90
2018-03-26T09:45:25.063Z,9.30
2018-03-26T09:46:25.069Z,8.70
2018-03-26T09:47:25.074Z,9.40
2018-03-26T09:48:25.078Z,9.10
2018-03-26T09:49:25.109Z,9.20
2018-03-26T09:50:25.090Z,9.20
2018-03-26T09:51:25.097Z,8.30
2018-03-26T09:52:25.107Z,8.90
2018-03-26T09:53:25.148Z,8.70
2018-03-26T09:54:25.114Z,8.00
2018-03-26T09:55:25.118Z,8.70
2018-03-26T09:56:25.162Z,8.30
2018-03-26T09:57:25.138Z,8.00
2018-03-26T09:58:25.142Z,8.30
2018-03-26T09:59:25.152Z,7.80
2018-03-26T10:00:25.152Z,8.60
2018-03-26T10:01:25.156Z,8.40
2018-03-26T10:02:25.165Z,8.00
2018-03-26T10:03:25.403Z,8.30
2018-03-26T10:04:25.180Z,8.50
2018-03-26T10:05:25.184Z,8.70
2018-03-26T10:06:25.196Z,8.30
2018-03-26T10:07:25.197Z,8.60
2018-03-26T10:08:25.752Z,8.90
2018-03-26T10:09:25.235Z,7.80
2018-03-26T10:10:25.218Z,8.50
2018-03-26T10:11:25.225Z,8.40
2018-03-26T10:12:25.232Z,8.20
2018-03-26T10:13:25.236Z,8.10
2018-03-26T10:14:25.243Z,8.40
2018-03-26T10:15:25.250Z,7.80
2018-03-26T10:16:25.259Z,8.70
2018-03-26T10:17:25.264Z,8.10
2018-03-26T10:18:25.275Z,7.80
2018-03-26T10:19:25.285Z,7.30
2018-03-26T10:20:25.283Z,8.50
2018-03-26T10:21:25.288Z,8.60
2018-03-26T10:22:25.302Z,7.90
2018-03-26T10:23:25.308Z,8.40
2018-03-26T10:24:25.314Z,8.30
2018-03-26T10:25:25.321Z,8.50
2018-03-26T10:26:25.327Z,8.60
2018-03-26T10:27:25.337Z,8.30
2018-03-26T10:28:25.350Z,8.00
2018-03-26T10:29:25.347Z,8.20
2018-03-26T10:30:25.357Z,8.10
2018-03-26T10:31:25.367Z,10.80
2018-03-26T10:32:25.371Z,9.00
2018-03-26T10:33:25.380Z,7.60
2018-03-26T10:34:25.383Z,8.00
2018-03-26T10:35:25.395Z,8.20
2018-03-26T10:36:25.406Z,8.40
2018-03-26T10:37:25.409Z,8.10
2018-03-26T10:38:25.415Z,8.40
2018-03-26T10:39:25.428Z,8.40
2018-03-26T10:40:25.431Z,8.50
2018-03-26T10:41:25.439Z,8.40
2018-03-26T10:42:25.444Z,7.70
2018-03-26T10:43:25.452Z,8.00
2018-03-26T10:44:25.457Z,8.40
2018-03-26T10:45:25.464Z,8.30
2018-03-26T10:46:25.473Z,7.90
2018-03-26T10:47:25.479Z,8.00
2018-03-26T10:48:25.485Z,7.80
2018-03-26T10:49:25.498Z,7.90
2018-03-26T10:50:25.499Z,7.50
2018-03-26T10:51:25.509Z,7.10
2018-03-26T10:52:25.513Z,7.50
2018-03-26T10:53:25.523Z,8.10
2018-03-26T10:54:25.526Z,6.90
2018-03-26T10:55:25.533Z,7.80
2018-03-26T10:56:25.544Z,7.80
2018-03-26T10:57:25.546Z,7.60
2018-03-26T10:58:25.554Z,7.90
2018-03-26T10:59:25.560Z,7.20
2018-03-26T11:00:25.613Z,7.30
2018-03-26T11:01:25.574Z,7.30
2018-03-26T11:02:25.583Z,6.80
2018-03-26T11:03:25.592Z,7.70
2018-03-26T11:04:25.609Z,7.50
2018-03-26T11:05:25.598Z,7.50
2018-03-26T11:06:25.605Z,6.80
2018-03-26T11:07:25.620Z,7.30
2018-03-26T11:08:25.623Z,6.90
2018-03-26T11:09:25.648Z,7.00
2018-03-26T11:10:25.631Z,7.40
2018-03-26T11:11:25.638Z,6.50
2018-03-26T11:12:25.645Z,7.40
2018-03-26T11:13:25.652Z,6.90
2018-03-26T11:14:25.658Z,6.90
2018-03-26T11:15:25.662Z,7.20
2018-03-26T11:16:25.669Z,7.00
2018-03-26T11:17:25.675Z,6.90
2018-03-26T11:18:25.681Z,7.10
2018-03-26T11:19:25.718Z,7.30
2018-03-26T11:20:25.695Z,7.40
2018-03-26T11:21:25.703Z,7.20
2018-03-26T11:22:25.708Z,6.80
2018-03-26T11:23:25.714Z,6.70
2018-03-26T11:24:25.720Z,7.20
2018-03-26T11:25:25.725Z,7.10
2018-03-26T11:26:25.736Z,7.90
2018-03-26T11:27:25.865Z,7.00
2018-03-26T11:28:25.746Z,7.30
2018-03-26T11:29:25.786Z,6.80
2018-03-26T11:30:25.761Z,6.80
2018-03-26T11:31:25.764Z,7.10
2018-03-26T11:32:25.768Z,7.30
2018-03-26T11:33:25.774Z,6.90
2018-03-26T11:34:25.781Z,7.00
2018-03-26T11:35:25.789Z,7.60
2018-03-26T11:36:25.865Z,6.60
2018-03-26T11:37:25.802Z,6.80
2018-03-26T11:38:25.805Z,9.10
2018-03-26T11:39:25.813Z,6.90
2018-03-26T11:40:25.820Z,7.00
2018-03-26T11:41:25.831Z,6.50
2018-03-26T11:42:25.837Z,7.00
2018-03-26T11:43:25.838Z,7.10
2018-03-26T11:44:25.841Z,6.70
2018-03-26T11:45:25.854Z,7.00
2018-03-26T11:46:25.852Z,7.20
2018-03-26T11:47:25.874Z,7.20
2018-03-26T11:48:25.869Z,6.90
2018-03-26T11:49:25.872Z,6.30
2018-03-26T11:50:25.884Z,6.70
2018-03-26T11:51:25.882Z,8.80
2018-03-26T11:52:25.887Z,7.30
2018-03-26T11:53:25.893Z,6.10
2018-03-26T11:54:25.904Z,6.50
2018-03-26T11:55:25.904Z,7.50
2018-03-26T11:56:25.910Z,6.50
2018-03-26T11:57:25.918Z,7.00
2018-03-26T11:58:25.918Z,7.20
2018-03-26T11:59:25.923Z,7.10
2018-03-26T12:00:25.929Z,6.30
2018-03-26T12:01:25.939Z,7.20
2018-03-26T12:02:25.960Z,6.20
2018-03-26T12:03:25.943Z,6.80
2018-03-26T12:04:25.949Z,6.90
2018-03-26T12:05:25.954Z,7.90
2018-03-26T12:06:25.961Z,7.70
2018-03-26T12:07:25.970Z,6.80
2018-03-26T12:08:25.981Z,7.10
2018-03-26T12:09:25.976Z,6.80
2018-03-26T12:10:25.980Z,8.20
2018-03-26T12:11:25.988Z,7.20
2018-03-26T12:12:25.988Z,9.00
2018-03-26T12:13:25.994Z,10.50
2018-03-26T12:14:26.000Z,10.00
2018-03-26T12:15:25.998Z,9.70
2018-03-26T12:16:26.007Z,9.60
2018-03-26T12:17:26.009Z,9.60
2018-03-26T12:18:26.014Z,7.70
2018-03-26T12:19:26.019Z,7.00
2018-03-26T12:20:26.025Z,8.30
2018-03-26T12:21:26.025Z,7.30
2018-03-26T12:22:26.028Z,7.30
2018-03-26T12:23:26.033Z,7.80
2018-03-26T12:24:26.038Z,7.30
2018-03-26T12:25:26.040Z,6.80
2018-03-26T12:26:26.046Z,6.90
2018-03-26T12:27:26.053Z,7.20
2018-03-26T12:28:26.053Z,6.60
2018-03-26T12:29:26.056Z,7.00
2018-03-26T12:30:26.064Z,6.70
2018-03-26T12:31:26.064Z,7.80
2018-03-26T12:32:26.111Z,7.60
2018-03-26T12:33:26.073Z,7.60
2018-03-26T12:34:26.076Z,6.70
2018-03-26T12:35:26.080Z,7.30
2018-03-26T12:36:26.085Z,7.00
2018-03-26T12:37:26.087Z,6.60
2018-03-26T12:38:26.093Z,6.50
2018-03-26T12:39:26.092Z,7.60
2018-03-26T12:40:26.101Z,6.90
2018-03-26T12:41:26.109Z,6.30
2018-03-26T12:42:26.109Z,7.10
2018-03-26T12:43:26.113Z,6.80
2018-03-26T12:44:26.119Z,6.40
2018-03-26T12:45:26.121Z,6.50
2018-03-26T12:46:26.355Z,6.50
2018-03-26T12:47:26.130Z,6.50
2018-03-26T12:48:26.130Z,6.20
2018-03-26T12:49:26.142Z,6.60
2018-03-26T12:50:26.145Z,6.10
2018-03-26T12:51:26.149Z,5.70
2018-03-26T12:52:26.151Z,6.20
2018-03-26T12:53:26.152Z,7.40
2018-03-26T12:54:26.162Z,6.40
2018-03-26T12:55:26.162Z,7.40
2018-03-26T12:56:26.170Z,6.00
2018-03-26T12:57:26.171Z,6.80
2018-03-26T12:58:26.177Z,6.40
2018-03-26T12:59:26.181Z,6.50